Morton, Texas
Current Conditions -  °F | °C
As of 3:35 PM on Thursday 23 Oct 2014 (Local Time) from KCVN Reporting Station
Clear Clear  
Wind Chill: 81°   Ceiling: Unl
Heat Index: 81°   Visibility: 10mi
Dew Point: 39°   Wind: 16mph
Humidity: 23%   Direction: 250°WSW
Pressure: 30.12"   Gusts: 21mph
Location:  33.73°N, 102.76°W
Report Text: KCVN 232035Z AUTO 25014G18KT 10SM CLR 27/04 A3012 RMK AO1
Loading
Personal Weather Stations






























Interactive Weather Map
Tropical Storm Tracking
New forecast layout! Learn more

10-Day Weather Forecast

Advertisements
Track Severe Weather on mobile